sensor_id;sensor_type;location;lat;lon;timestamp;temperature;humidity
9965;DHT22;5023;53.554;9.964;2023-07-24T00:04:20;18.70;99.90
9965;DHT22;5023;53.554;9.964;2023-07-24T00:09:24;18.60;99.90
9965;DHT22;5023;53.554;9.964;2023-07-24T00:14:26;18.70;99.90
9965;DHT22;5023;53.554;9.964;2023-07-24T00:19:28;18.70;99.90
9965;DHT22;5023;53.554;9.964;2023-07-24T00:24:31;18.60;99.90
9965;DHT22;5023;53.554;9.964;2023-07-24T00:29:33;18.60;99.90
9965;DHT22;5023;53.554;9.964;2023-07-24T00:34:35;18.60;99.90
9965;DHT22;5023;53.554;9.964;2023-07-24T00:39:38;18.60;99.90
9965;DHT22;5023;53.554;9.964;2023-07-24T00:44:40;18.60;99.90
9965;DHT22;5023;53.554;9.964;2023-07-24T00:49:42;18.50;99.90
9965;DHT22;5023;53.554;9.964;2023-07-24T00:54:46;18.60;99.90
9965;DHT22;5023;53.554;9.964;2023-07-24T00:59:49;18.60;99.90
9965;DHT22;5023;53.554;9.964;2023-07-24T01:04:51;18.60;99.90
9965;DHT22;5023;53.554;9.964;2023-07-24T01:09:54;18.60;99.90
9965;DHT22;5023;53.554;9.964;2023-07-24T01:15:03;18.60;99.90
9965;DHT22;5023;53.554;9.964;2023-07-24T01:20:11;18.50;99.90
9965;DHT22;5023;53.554;9.964;2023-07-24T01:25:23;18.50;99.90
9965;DHT22;5023;53.554;9.964;2023-07-24T01:30:29;18.60;99.90
9965;DHT22;5023;53.554;9.964;2023-07-24T01:35:32;18.60;99.90
9965;DHT22;5023;53.554;9.964;2023-07-24T01:40:34;18.60;99.90
9965;DHT22;5023;53.554;9.964;2023-07-24T01:45:37;18.50;99.90
9965;DHT22;5023;53.554;9.964;2023-07-24T01:50:39;18.60;99.90
9965;DHT22;5023;53.554;9.964;2023-07-24T01:55:41;18.60;99.90
9965;DHT22;5023;53.554;9.964;2023-07-24T02:00:44;18.60;99.90
9965;DHT22;5023;53.554;9.964;2023-07-24T02:05:49;18.60;99.90
9965;DHT22;5023;53.554;9.964;2023-07-24T02:10:52;18.60;99.90
9965;DHT22;5023;53.554;9.964;2023-07-24T02:15:55;18.60;99.90
9965;DHT22;5023;53.554;9.964;2023-07-24T02:20:57;18.60;99.90
9965;DHT22;5023;53.554;9.964;2023-07-24T02:25:58;18.60;99.90
9965;DHT22;5023;53.554;9.964;2023-07-24T02:31:02;18.60;99.90
9965;DHT22;5023;53.554;9.964;2023-07-24T02:36:04;18.70;99.90
9965;DHT22;5023;53.554;9.964;2023-07-24T02:41:06;18.60;99.90
9965;DHT22;5023;53.554;9.964;2023-07-24T02:46:09;18.60;99.90
9965;DHT22;5023;53.554;9.964;2023-07-24T02:51:11;18.60;99.90
9965;DHT22;5023;53.554;9.964;2023-07-24T02:56:12;18.60;99.90
9965;DHT22;5023;53.554;9.964;2023-07-24T03:01:16;18.50;99.90
9965;DHT22;5023;53.554;9.964;2023-07-24T03:06:18;18.50;99.90
9965;DHT22;5023;53.554;9.964;2023-07-24T03:11:19;18.50;99.90
9965;DHT22;5023;53.554;9.964;2023-07-24T03:16:23;18.50;99.90
9965;DHT22;5023;53.554;9.964;2023-07-24T03:21:25;18.60;99.90
9965;DHT22;5023;53.554;9.964;2023-07-24T03:26:27;18.50;99.90
9965;DHT22;5023;53.554;9.964;2023-07-24T03:31:30;18.60;99.90
9965;DHT22;5023;53.554;9.964;2023-07-24T03:36:32;18.60;99.90
9965;DHT22;5023;53.554;9.964;2023-07-24T03:41:34;18.50;99.90
9965;DHT22;5023;53.554;9.964;2023-07-24T03:46:37;18.50;99.90
9965;DHT22;5023;53.554;9.964;2023-07-24T03:51:39;18.50;99.90
9965;DHT22;5023;53.554;9.964;2023-07-24T03:56:41;18.40;99.90
9965;DHT22;5023;53.554;9.964;2023-07-24T04:01:45;18.40;99.90
9965;DHT22;5023;53.554;9.964;2023-07-24T04:06:47;18.40;99.90
9965;DHT22;5023;53.554;9.964;2023-07-24T04:11:49;18.30;99.90
9965;DHT22;5023;53.554;9.964;2023-07-24T04:16:52;18.30;99.90
9965;DHT22;5023;53.554;9.964;2023-07-24T04:21:56;18.20;99.90
9965;DHT22;5023;53.554;9.964;2023-07-24T04:26:58;18.20;99.90
9965;DHT22;5023;53.554;9.964;2023-07-24T04:32:01;18.20;99.90
9965;DHT22;5023;53.554;9.964;2023-07-24T04:37:03;18.20;99.90
9965;DHT22;5023;53.554;9.964;2023-07-24T04:42:06;18.20;99.90
9965;DHT22;5023;53.554;9.964;2023-07-24T04:47:09;18.20;99.90
9965;DHT22;5023;53.554;9.964;2023-07-24T04:52:11;18.30;99.90
9965;DHT22;5023;53.554;9.964;2023-07-24T04:57:13;18.30;99.90
9965;DHT22;5023;53.554;9.964;2023-07-24T05:02:16;18.40;99.90
9965;DHT22;5023;53.554;9.964;2023-07-24T05:07:18;18.40;99.90
9965;DHT22;5023;53.554;9.964;2023-07-24T05:12:20;18.40;99.90
9965;DHT22;5023;53.554;9.964;2023-07-24T05:17:23;18.50;99.90
9965;DHT22;5023;53.554;9.964;2023-07-24T05:22:25;18.50;99.90
9965;DHT22;5023;53.554;9.964;2023-07-24T05:27:27;18.60;99.90
9965;DHT22;5023;53.554;9.964;2023-07-24T05:32:31;18.60;99.90
9965;DHT22;5023;53.554;9.964;2023-07-24T05:37:33;18.80;99.90
9965;DHT22;5023;53.554;9.964;2023-07-24T05:42:35;18.80;99.90
9965;DHT22;5023;53.554;9.964;2023-07-24T05:47:43;18.90;99.90
9965;DHT22;5023;53.554;9.964;2023-07-24T05:52:45;19.00;99.90
9965;DHT22;5023;53.554;9.964;2023-07-24T05:57:47;18.90;99.90
9965;DHT22;5023;53.554;9.964;2023-07-24T06:02:50;18.90;99.90
9965;DHT22;5023;53.554;9.964;2023-07-24T06:07:52;19.00;99.90
9965;DHT22;5023;53.554;9.964;2023-07-24T06:12:54;18.90;99.90
9965;DHT22;5023;53.554;9.964;2023-07-24T06:17:57;19.00;99.90
9965;DHT22;5023;53.554;9.964;2023-07-24T06:22:59;19.00;99.90
9965;DHT22;5023;53.554;9.964;2023-07-24T06:28:01;19.00;99.90
9965;DHT22;5023;53.554;9.964;2023-07-24T06:33:04;19.00;99.90
9965;DHT22;5023;53.554;9.964;2023-07-24T06:38:06;19.10;99.90
9965;DHT22;5023;53.554;9.964;2023-07-24T06:43:09;19.20;99.90
9965;DHT22;5023;53.554;9.964;2023-07-24T06:48:12;19.20;99.90
9965;DHT22;5023;53.554;9.964;2023-07-24T06:53:14;19.20;99.90
9965;DHT22;5023;53.554;9.964;2023-07-24T06:58:16;19.30;99.90
9965;DHT22;5023;53.554;9.964;2023-07-24T07:03:19;19.40;99.90
9965;DHT22;5023;53.554;9.964;2023-07-24T07:08:21;19.40;99.90
9965;DHT22;5023;53.554;9.964;2023-07-24T07:13:23;19.40;99.90
9965;DHT22;5023;53.554;9.964;2023-07-24T07:18:26;19.40;99.90
9965;DHT22;5023;53.554;9.964;2023-07-24T07:23:29;19.30;99.90
9965;DHT22;5023;53.554;9.964;2023-07-24T07:28:30;19.40;99.90
9965;DHT22;5023;53.554;9.964;2023-07-24T07:33:34;19.40;99.90
9965;DHT22;5023;53.554;9.964;2023-07-24T07:38:35;19.30;99.90
9965;DHT22;5023;53.554;9.964;2023-07-24T07:43:39;19.40;99.90
9965;DHT22;5023;53.554;9.964;2023-07-24T07:48:43;19.30;99.90
9965;DHT22;5023;53.554;9.964;2023-07-24T07:53:46;19.30;99.90
9965;DHT22;5023;53.554;9.964;2023-07-24T07:58:48;19.30;99.90
9965;DHT22;5023;53.554;9.964;2023-07-24T08:03:52;19.40;99.90
9965;DHT22;5023;53.554;9.964;2023-07-24T08:08:53;19.50;99.90
9965;DHT22;5023;53.554;9.964;2023-07-24T08:13:55;19.60;99.90
9965;DHT22;5023;53.554;9.964;2023-07-24T08:18:59;19.60;99.90
9965;DHT22;5023;53.554;9.964;2023-07-24T08:24:01;19.60;99.90
9965;DHT22;5023;53.554;9.964;2023-07-24T08:29:03;19.70;99.90
9965;DHT22;5023;53.554;9.964;2023-07-24T08:34:06;19.80;99.90
9965;DHT22;5023;53.554;9.964;2023-07-24T08:39:08;19.90;99.90
9965;DHT22;5023;53.554;9.964;2023-07-24T08:44:11;19.90;99.90
9965;DHT22;5023;53.554;9.964;2023-07-24T08:49:14;20.00;99.90
9965;DHT22;5023;53.554;9.964;2023-07-24T08:54:17;20.00;99.90
9965;DHT22;5023;53.554;9.964;2023-07-24T08:59:20;20.00;99.90
9965;DHT22;5023;53.554;9.964;2023-07-24T09:04:24;20.10;99.90
9965;DHT22;5023;53.554;9.964;2023-07-24T09:09:29;20.20;99.90
9965;DHT22;5023;53.554;9.964;2023-07-24T09:14:32;20.40;99.90
9965;DHT22;5023;53.554;9.964;2023-07-24T09:19:35;20.50;99.90
9965;DHT22;5023;53.554;9.964;2023-07-24T09:24:37;20.60;99.90
9965;DHT22;5023;53.554;9.964;2023-07-24T09:29:39;20.50;99.90
9965;DHT22;5023;53.554;9.964;2023-07-24T09:34:43;20.40;99.90
9965;DHT22;5023;53.554;9.964;2023-07-24T09:39:46;20.40;99.90
9965;DHT22;5023;53.554;9.964;2023-07-24T09:44:48;20.40;99.90
9965;DHT22;5023;53.554;9.964;2023-07-24T09:49:52;20.40;99.90
9965;DHT22;5023;53.554;9.964;2023-07-24T09:54:59;20.50;99.90
9965;DHT22;5023;53.554;9.964;2023-07-24T10:00:05;20.80;99.90
9965;DHT22;5023;53.554;9.964;2023-07-24T10:05:09;21.00;99.90
9965;DHT22;5023;53.554;9.964;2023-07-24T10:10:12;21.00;99.90
9965;DHT22;5023;53.554;9.964;2023-07-24T10:15:15;21.00;99.90
9965;DHT22;5023;53.554;9.964;2023-07-24T10:20:18;21.10;99.90
9965;DHT22;5023;53.554;9.964;2023-07-24T10:25:29;21.10;99.90
9965;DHT22;5023;53.554;9.964;2023-07-24T10:30:32;21.10;99.90
9965;DHT22;5023;53.554;9.964;2023-07-24T10:35:43;21.20;99.90
9965;DHT22;5023;53.554;9.964;2023-07-24T10:40:47;21.10;99.90
9965;DHT22;5023;53.554;9.964;2023-07-24T10:45:51;21.20;99.90
9965;DHT22;5023;53.554;9.964;2023-07-24T10:50:54;21.20;99.90
9965;DHT22;5023;53.554;9.964;2023-07-24T10:55:56;21.30;99.90
9965;DHT22;5023;53.554;9.964;2023-07-24T11:00:58;21.30;99.90
9965;DHT22;5023;53.554;9.964;2023-07-24T11:06:02;21.30;99.90
9965;DHT22;5023;53.554;9.964;2023-07-24T11:11:04;21.50;99.90
9965;DHT22;5023;53.554;9.964;2023-07-24T11:16:08;21.80;99.90
9965;DHT22;5023;53.554;9.964;2023-07-24T11:21:12;22.00;99.90
9965;DHT22;5023;53.554;9.964;2023-07-24T11:26:14;22.20;99.90
9965;DHT22;5023;53.554;9.964;2023-07-24T11:31:17;22.30;99.90
9965;DHT22;5023;53.554;9.964;2023-07-24T11:36:22;22.20;99.90
9965;DHT22;5023;53.554;9.964;2023-07-24T11:41:26;22.10;99.90
9965;DHT22;5023;53.554;9.964;2023-07-24T11:46:28;22.10;99.90
9965;DHT22;5023;53.554;9.964;2023-07-24T11:51:36;22.30;99.90
9965;DHT22;5023;53.554;9.964;2023-07-24T11:56:38;22.70;99.90
9965;DHT22;5023;53.554;9.964;2023-07-24T12:01:41;23.40;99.90
9965;DHT22;5023;53.554;9.964;2023-07-24T12:06:44;24.00;99.90
9965;DHT22;5023;53.554;9.964;2023-07-24T12:11:46;24.40;99.90
9965;DHT22;5023;53.554;9.964;2023-07-24T12:16:49;24.40;99.90
9965;DHT22;5023;53.554;9.964;2023-07-24T12:21:53;24.60;99.90
9965;DHT22;5023;53.554;9.964;2023-07-24T12:26:55;25.00;99.90
9965;DHT22;5023;53.554;9.964;2023-07-24T12:31:57;25.30;99.90
9965;DHT22;5023;53.554;9.964;2023-07-24T12:37:02;25.60;99.90
9965;DHT22;5023;53.554;9.964;2023-07-24T12:42:05;25.80;99.90
9965;DHT22;5023;53.554;9.964;2023-07-24T12:47:07;25.80;99.90
9965;DHT22;5023;53.554;9.964;2023-07-24T12:52:10;25.90;99.90
9965;DHT22;5023;53.554;9.964;2023-07-24T12:57:12;26.20;99.90
9965;DHT22;5023;53.554;9.964;2023-07-24T13:02:14;26.80;99.90
9965;DHT22;5023;53.554;9.964;2023-07-24T13:07:18;27.00;99.90
9965;DHT22;5023;53.554;9.964;2023-07-24T13:12:19;27.10;99.90
9965;DHT22;5023;53.554;9.964;2023-07-24T13:17:21;27.40;99.90
9965;DHT22;5023;53.554;9.964;2023-07-24T13:22:25;26.80;99.90
9965;DHT22;5023;53.554;9.964;2023-07-24T13:27:27;27.20;99.90
9965;DHT22;5023;53.554;9.964;2023-07-24T13:32:29;27.20;99.90
9965;DHT22;5023;53.554;9.964;2023-07-24T13:37:32;27.00;99.90
9965;DHT22;5023;53.554;9.964;2023-07-24T13:42:34;27.50;99.90
9965;DHT22;5023;53.554;9.964;2023-07-24T13:47:35;26.80;99.90
9965;DHT22;5023;53.554;9.964;2023-07-24T13:52:39;26.60;99.90
9965;DHT22;5023;53.554;9.964;2023-07-24T13:57:41;26.90;99.90
9965;DHT22;5023;53.554;9.964;2023-07-24T14:02:43;26.60;99.90
9965;DHT22;5023;53.554;9.964;2023-07-24T14:07:46;27.10;99.90
9965;DHT22;5023;53.554;9.964;2023-07-24T14:12:48;26.80;99.90
9965;DHT22;5023;53.554;9.964;2023-07-24T14:17:50;26.30;99.90
9965;DHT22;5023;53.554;9.964;2023-07-24T14:22:53;26.10;99.90
9965;DHT22;5023;53.554;9.964;2023-07-24T14:27:55;26.20;99.90
9965;DHT22;5023;53.554;9.964;2023-07-24T14:32:57;26.40;99.90
9965;DHT22;5023;53.554;9.964;2023-07-24T14:38:00;26.10;99.90
9965;DHT22;5023;53.554;9.964;2023-07-24T14:43:02;25.80;99.90
9965;DHT22;5023;53.554;9.964;2023-07-24T14:48:05;25.60;99.90
9965;DHT22;5023;53.554;9.964;2023-07-24T14:53:10;25.40;99.90
9965;DHT22;5023;53.554;9.964;2023-07-24T14:58:12;25.00;99.90
9965;DHT22;5023;53.554;9.964;2023-07-24T15:03:14;24.70;99.90
9965;DHT22;5023;53.554;9.964;2023-07-24T15:08:17;24.70;99.90
9965;DHT22;5023;53.554;9.964;2023-07-24T15:13:19;24.70;99.90
9965;DHT22;5023;53.554;9.964;2023-07-24T15:18:21;24.60;99.90
9965;DHT22;5023;53.554;9.964;2023-07-24T15:23:24;24.50;99.90
9965;DHT22;5023;53.554;9.964;2023-07-24T15:28:26;24.30;99.90
9965;DHT22;5023;53.554;9.964;2023-07-24T15:33:28;24.20;99.90
9965;DHT22;5023;53.554;9.964;2023-07-24T15:38:31;23.80;99.90
9965;DHT22;5023;53.554;9.964;2023-07-24T15:43:33;22.70;99.90
9965;DHT22;5023;53.554;9.964;2023-07-24T15:48:35;21.70;99.90
9965;DHT22;5023;53.554;9.964;2023-07-24T15:53:39;21.10;99.90
9965;DHT22;5023;53.554;9.964;2023-07-24T15:58:41;20.70;99.90
9965;DHT22;5023;53.554;9.964;2023-07-24T16:03:43;20.30;99.90
9965;DHT22;5023;53.554;9.964;2023-07-24T16:08:46;19.90;99.90
9965;DHT22;5023;53.554;9.964;2023-07-24T16:13:48;19.70;99.90
9965;DHT22;5023;53.554;9.964;2023-07-24T16:19:11;19.60;99.90
9965;DHT22;5023;53.554;9.964;2023-07-24T16:24:16;19.60;99.90
9965;DHT22;5023;53.554;9.964;2023-07-24T16:29:21;19.60;99.90
9965;DHT22;5023;53.554;9.964;2023-07-24T16:34:23;19.50;99.90
9965;DHT22;5023;53.554;9.964;2023-07-24T16:39:27;19.20;99.90
9965;DHT22;5023;53.554;9.964;2023-07-24T16:44:29;19.20;99.90
9965;DHT22;5023;53.554;9.964;2023-07-24T16:49:31;19.10;99.90
9965;DHT22;5023;53.554;9.964;2023-07-24T16:54:34;19.20;99.90
9965;DHT22;5023;53.554;9.964;2023-07-24T16:59:36;19.20;99.90
9965;DHT22;5023;53.554;9.964;2023-07-24T17:04:38;19.10;99.90
9965;DHT22;5023;53.554;9.964;2023-07-24T17:09:41;19.10;99.90
9965;DHT22;5023;53.554;9.964;2023-07-24T17:14:43;18.90;99.90
9965;DHT22;5023;53.554;9.964;2023-07-24T17:19:46;18.70;99.90
9965;DHT22;5023;53.554;9.964;2023-07-24T17:24:49;18.80;99.90
9965;DHT22;5023;53.554;9.964;2023-07-24T17:29:51;18.70;99.90
9965;DHT22;5023;53.554;9.964;2023-07-24T17:34:54;18.80;99.90
9965;DHT22;5023;53.554;9.964;2023-07-24T17:39:57;18.60;99.90
9965;DHT22;5023;53.554;9.964;2023-07-24T17:44:59;18.40;99.90
9965;DHT22;5023;53.554;9.964;2023-07-24T17:50:01;18.20;99.90
9965;DHT22;5023;53.554;9.964;2023-07-24T17:55:05;18.10;99.90
9965;DHT22;5023;53.554;9.964;2023-07-24T18:00:09;17.90;99.90
9965;DHT22;5023;53.554;9.964;2023-07-24T18:05:11;18.00;99.90
9965;DHT22;5023;53.554;9.964;2023-07-24T18:10:14;18.00;99.90
9965;DHT22;5023;53.554;9.964;2023-07-24T18:15:16;18.00;99.90
9965;DHT22;5023;53.554;9.964;2023-07-24T18:20:18;18.00;99.90
9965;DHT22;5023;53.554;9.964;2023-07-24T18:25:26;18.00;99.90
9965;DHT22;5023;53.554;9.964;2023-07-24T18:30:28;17.90;99.90
9965;DHT22;5023;53.554;9.964;2023-07-24T18:35:30;17.90;99.90
9965;DHT22;5023;53.554;9.964;2023-07-24T18:40:33;17.80;99.90
9965;DHT22;5023;53.554;9.964;2023-07-24T18:45:35;17.70;99.90
9965;DHT22;5023;53.554;9.964;2023-07-24T18:50:37;17.70;99.90
9965;DHT22;5023;53.554;9.964;2023-07-24T18:55:40;17.70;99.90
9965;DHT22;5023;53.554;9.964;2023-07-24T19:00:42;17.70;99.90
9965;DHT22;5023;53.554;9.964;2023-07-24T19:05:44;17.60;99.90
9965;DHT22;5023;53.554;9.964;2023-07-24T19:10:47;17.60;99.90
9965;DHT22;5023;53.554;9.964;2023-07-24T19:15:49;17.50;99.90
9965;DHT22;5023;53.554;9.964;2023-07-24T19:20:51;17.40;99.90
9965;DHT22;5023;53.554;9.964;2023-07-24T19:25:54;17.40;99.90
9965;DHT22;5023;53.554;9.964;2023-07-24T19:30:56;17.30;99.90
9965;DHT22;5023;53.554;9.964;2023-07-24T19:35:59;17.20;99.90
9965;DHT22;5023;53.554;9.964;2023-07-24T19:41:02;17.20;99.90
9965;DHT22;5023;53.554;9.964;2023-07-24T19:46:05;17.10;99.90
9965;DHT22;5023;53.554;9.964;2023-07-24T19:51:07;17.10;99.90
9965;DHT22;5023;53.554;9.964;2023-07-24T19:56:11;17.00;99.90
9965;DHT22;5023;53.554;9.964;2023-07-24T20:01:12;17.10;99.90
9965;DHT22;5023;53.554;9.964;2023-07-24T20:06:14;17.10;99.90
9965;DHT22;5023;53.554;9.964;2023-07-24T20:11:18;17.20;99.90
9965;DHT22;5023;53.554;9.964;2023-07-24T20:16:20;17.20;99.90
9965;DHT22;5023;53.554;9.964;2023-07-24T20:21:21;17.20;99.90
9965;DHT22;5023;53.554;9.964;2023-07-24T20:26:25;17.20;99.90
9965;DHT22;5023;53.554;9.964;2023-07-24T20:31:27;17.20;99.90
9965;DHT22;5023;53.554;9.964;2023-07-24T20:36:29;17.10;99.90
9965;DHT22;5023;53.554;9.964;2023-07-24T20:41:32;17.20;99.90
9965;DHT22;5023;53.554;9.964;2023-07-24T20:46:34;17.10;99.90
9965;DHT22;5023;53.554;9.964;2023-07-24T20:51:36;17.00;99.90
9965;DHT22;5023;53.554;9.964;2023-07-24T20:56:39;16.80;99.90
9965;DHT22;5023;53.554;9.964;2023-07-24T21:01:41;16.70;99.90
9965;DHT22;5023;53.554;9.964;2023-07-24T21:06:43;16.60;99.90
9965;DHT22;5023;53.554;9.964;2023-07-24T21:11:47;16.60;99.90
9965;DHT22;5023;53.554;9.964;2023-07-24T21:16:52;16.60;99.90
9965;DHT22;5023;53.554;9.964;2023-07-24T21:22:04;16.60;99.90
9965;DHT22;5023;53.554;9.964;2023-07-24T21:27:07;16.50;99.90
9965;DHT22;5023;53.554;9.964;2023-07-24T21:32:09;16.50;99.90
9965;DHT22;5023;53.554;9.964;2023-07-24T21:37:11;16.40;99.90
9965;DHT22;5023;53.554;9.964;2023-07-24T21:42:15;16.40;99.90
9965;DHT22;5023;53.554;9.964;2023-07-24T21:47:16;16.40;99.90
9965;DHT22;5023;53.554;9.964;2023-07-24T21:52:21;16.50;99.90
9965;DHT22;5023;53.554;9.964;2023-07-24T21:57:26;16.40;99.90
9965;DHT22;5023;53.554;9.964;2023-07-24T22:02:28;16.40;99.90
9965;DHT22;5023;53.554;9.964;2023-07-24T22:07:31;16.40;99.90
9965;DHT22;5023;53.554;9.964;2023-07-24T22:12:35;16.30;99.90
9965;DHT22;5023;53.554;9.964;2023-07-24T22:17:37;16.30;99.90
9965;DHT22;5023;53.554;9.964;2023-07-24T22:22:39;16.30;99.90
9965;DHT22;5023;53.554;9.964;2023-07-24T22:27:43;16.30;99.90
9965;DHT22;5023;53.554;9.964;2023-07-24T22:32:45;16.30;99.90
9965;DHT22;5023;53.554;9.964;2023-07-24T22:37:47;16.30;99.90
9965;DHT22;5023;53.554;9.964;2023-07-24T22:42:52;16.30;99.90
9965;DHT22;5023;53.554;9.964;2023-07-24T22:47:55;16.30;99.90
9965;DHT22;5023;53.554;9.964;2023-07-24T22:52:57;16.20;99.90
9965;DHT22;5023;53.554;9.964;2023-07-24T22:58:15;16.20;99.90
9965;DHT22;5023;53.554;9.964;2023-07-24T23:03:16;16.10;99.90
9965;DHT22;5023;53.554;9.964;2023-07-24T23:08:21;16.10;99.90
9965;DHT22;5023;53.554;9.964;2023-07-24T23:13:25;16.10;99.90
9965;DHT22;5023;53.554;9.964;2023-07-24T23:18:29;16.10;99.90
9965;DHT22;5023;53.554;9.964;2023-07-24T23:23:34;16.10;99.90
9965;DHT22;5023;53.554;9.964;2023-07-24T23:28:38;16.10;99.90
9965;DHT22;5023;53.554;9.964;2023-07-24T23:33:39;16.00;99.90
9965;DHT22;5023;53.554;9.964;2023-07-24T23:38:41;16.00;99.90
9965;DHT22;5023;53.554;9.964;2023-07-24T23:43:44;15.90;99.90
9965;DHT22;5023;53.554;9.964;2023-07-24T23:48:46;15.80;99.90
9965;DHT22;5023;53.554;9.964;2023-07-24T23:53:49;15.90;99.90
9965;DHT22;5023;53.554;9.964;2023-07-24T23:58:52;15.80;99.90
